createdAt,value
2023-03-06T00:00:31.404Z,100935.41
2023-03-06T00:02:58.110Z,100932.53
2023-03-06T00:05:24.601Z,100927.25
2023-03-06T00:07:51.194Z,100925.56
2023-03-06T00:10:26.097Z,100932.53
2023-03-06T00:12:59.238Z,100926.16
2023-03-06T00:15:26.820Z,100918.41
2023-03-06T00:17:53.802Z,100913.66
2023-03-06T00:20:21.582Z,100911.38
2023-03-06T00:22:48.829Z,100923.28
2023-03-06T00:25:19.306Z,100915.25
2023-03-06T00:27:46.212Z,100903.22
2023-03-06T00:30:15.751Z,100907.00
2023-03-06T00:32:43.078Z,100904.81
2023-03-06T00:35:09.867Z,100901.91
2023-03-06T00:37:36.432Z,100903.91
2023-03-06T00:40:05.902Z,100902.59
2023-03-06T00:42:32.634Z,100897.94
2023-03-06T00:44:59.102Z,100888.00
2023-03-06T00:47:25.652Z,100888.00
2023-03-06T00:49:52.191Z,100879.25
2023-03-06T00:52:18.877Z,100873.78
2023-03-06T00:54:45.697Z,100875.84
2023-03-06T00:57:12.186Z,100873.47
2023-03-06T00:59:38.742Z,100866.72
2023-03-06T01:02:06.448Z,100859.78
2023-03-06T01:04:33.133Z,100858.59
2023-03-06T01:06:59.722Z,100853.53
2023-03-06T01:09:26.251Z,100851.84
2023-03-06T01:11:52.733Z,100845.28
2023-03-06T01:14:19.442Z,100845.56
2023-03-06T01:16:47.172Z,100849.63
2023-03-06T01:19:13.841Z,100842.69
2023-03-06T01:21:40.272Z,100838.22
2023-03-06T01:24:07.425Z,100844.16
2023-03-06T01:26:34.500Z,100834.81
2023-03-06T01:29:01.585Z,100834.94
2023-03-06T01:31:28.092Z,100831.34
2023-03-06T01:33:54.556Z,100831.06
2023-03-06T01:36:21.081Z,100832.56
2023-03-06T01:38:47.571Z,100822.81
2023-03-06T01:41:17.316Z,100825.00
2023-03-06T01:43:46.056Z,100827.50
2023-03-06T01:46:31.264Z,100830.97
2023-03-06T01:49:04.454Z,100829.84
2023-03-06T01:51:39.236Z,100829.56
2023-03-06T01:54:12.184Z,100826.47
2023-03-06T01:56:44.004Z,100822.13
2023-03-06T01:59:10.848Z,100825.50
2023-03-06T02:01:39.844Z,100823.22
2023-03-06T02:04:06.771Z,100822.03
2023-03-06T02:06:39.825Z,100820.16
2023-03-06T02:09:06.569Z,100817.56
2023-03-06T02:11:33.242Z,100823.44
2023-03-06T02:14:00.007Z,100809.22
2023-03-06T02:16:28.968Z,100811.78
2023-03-06T02:18:56.361Z,100808.03
2023-03-06T02:21:32.025Z,100810.41
2023-03-06T02:24:35.791Z,100805.91
2023-03-06T02:27:04.493Z,100806.31
2023-03-06T02:29:31.849Z,100803.91
2023-03-06T02:31:58.383Z,100798.78
2023-03-06T02:34:24.758Z,100795.97
2023-03-06T02:36:59.514Z,100793.59
2023-03-06T02:39:29.642Z,100797.88
2023-03-06T02:41:56.201Z,100799.63
2023-03-06T02:44:24.103Z,100795.03
2023-03-06T02:46:50.597Z,100788.44
2023-03-06T02:49:17.086Z,100785.38
2023-03-06T02:51:43.630Z,100786.03
2023-03-06T02:54:10.982Z,100774.91
2023-03-06T02:56:37.521Z,100772.22
2023-03-06T02:59:04.287Z,100769.63
2023-03-06T03:01:31.003Z,100760.09
2023-03-06T03:03:57.460Z,100753.72
2023-03-06T03:06:24.004Z,100748.06
2023-03-06T03:08:50.440Z,100746.31
2023-03-06T03:11:16.855Z,100740.69
2023-03-06T03:13:43.465Z,100743.28
2023-03-06T03:16:16.181Z,100741.69
2023-03-06T03:18:44.620Z,100736.94
2023-03-06T03:21:12.904Z,100733.16
2023-03-06T03:23:39.510Z,100738.59
2023-03-06T03:26:17.751Z,100724.78
2023-03-06T03:28:44.613Z,100727.75
2023-03-06T03:31:12.378Z,100719.81
2023-03-06T03:33:40.491Z,100726.53
2023-03-06T03:36:08.016Z,100716.63
2023-03-06T03:38:35.243Z,100712.66
2023-03-06T03:41:02.282Z,100710.78
2023-03-06T03:43:28.781Z,100703.53
2023-03-06T03:45:55.294Z,100705.91
2023-03-06T03:48:21.877Z,100704.34
2023-03-06T03:50:48.466Z,100700.63
2023-03-06T03:53:14.954Z,100704.88
2023-03-06T03:55:41.385Z,100705.47
2023-03-06T03:58:07.856Z,100694.25
2023-03-06T04:00:34.268Z,100696.13
2023-03-06T04:03:00.790Z,100692.38
2023-03-06T04:05:27.300Z,100692.09
2023-03-06T04:07:53.806Z,100687.72
2023-03-06T04:10:20.444Z,100681.28
2023-03-06T04:12:46.931Z,100683.88
2023-03-06T04:15:13.431Z,100681.75
2023-03-06T04:17:39.842Z,100678.06
2023-03-06T04:20:06.872Z,100680.44
2023-03-06T04:22:33.337Z,100679.63
2023-03-06T04:24:59.792Z,100677.56
2023-03-06T04:27:26.310Z,100679.53
2023-03-06T04:29:56.159Z,100680.00
2023-03-06T04:32:23.902Z,100672.50
2023-03-06T04:34:50.774Z,100671.97
2023-03-06T04:37:23.920Z,100666.06
2023-03-06T04:39:50.852Z,100655.91
2023-03-06T04:42:17.707Z,100663.69
2023-03-06T04:44:44.575Z,100658.03
2023-03-06T04:47:11.564Z,100655.03
2023-03-06T04:49:38.099Z,100651.09
2023-03-06T04:52:05.041Z,100654.06
2023-03-06T04:54:31.618Z,100655.66
2023-03-06T04:56:58.144Z,100655.34
2023-03-06T04:59:24.687Z,100651.78
2023-03-06T05:01:51.250Z,100660.31
2023-03-06T05:04:17.792Z,100655.75
2023-03-06T05:06:44.283Z,100649.09
2023-03-06T05:09:10.819Z,100650.41
2023-03-06T05:11:37.325Z,100644.53
2023-03-06T05:14:03.931Z,100640.28
2023-03-06T05:16:30.481Z,100640.78
2023-03-06T05:18:56.928Z,100656.56
2023-03-06T05:21:23.418Z,100650.59
2023-03-06T05:23:50.015Z,100644.94
2023-03-06T05:26:16.575Z,100648.31
2023-03-06T05:28:43.215Z,100646.06
2023-03-06T05:31:09.698Z,100646.53
2023-03-06T05:33:36.714Z,100653.28
2023-03-06T05:36:03.502Z,100651.50
2023-03-06T05:38:30.051Z,100642.75
2023-03-06T05:40:56.558Z,100638.50
2023-03-06T05:43:23.077Z,100633.53
2023-03-06T05:45:50.571Z,100647.03
2023-03-06T05:48:17.138Z,100647.31
2023-03-06T05:50:43.592Z,100634.81
2023-03-06T05:53:10.049Z,100636.19
2023-03-06T05:55:36.730Z,100631.94
2023-03-06T05:58:03.315Z,100640.16
2023-03-06T06:00:29.900Z,100627.88
2023-03-06T06:02:56.404Z,100626.28
2023-03-06T06:05:22.925Z,100626.88
2023-03-06T06:07:49.420Z,100630.66
2023-03-06T06:10:15.948Z,100627.97
2023-03-06T06:12:42.453Z,100632.31
2023-03-06T06:15:09.430Z,100638.16
2023-03-06T06:17:35.897Z,100634.19
2023-03-06T06:20:02.836Z,100630.72
2023-03-06T06:22:29.291Z,100635.28
2023-03-06T06:24:55.841Z,100640.44
2023-03-06T06:27:22.331Z,100640.72
2023-03-06T06:29:51.894Z,100644.78
2023-03-06T06:32:18.458Z,100635.97
2023-03-06T06:34:44.960Z,100633.50
2023-03-06T06:37:11.593Z,100632.69
2023-03-06T06:39:38.037Z,100645.00
2023-03-06T06:42:27.989Z,100632.91
2023-03-06T06:44:51.461Z,100633.91
2023-03-06T06:47:23.078Z,100634.31
2023-03-06T06:49:52.690Z,100636.22
2023-03-06T06:52:19.528Z,100639.00
2023-03-06T06:54:46.192Z,100647.41
2023-03-06T06:57:12.743Z,100647.22
2023-03-06T06:59:39.189Z,100644.25
2023-03-06T07:02:05.970Z,100646.06
2023-03-06T07:04:32.479Z,100646.72
2023-03-06T07:06:59.179Z,100656.75
2023-03-06T07:09:26.526Z,100657.75
2023-03-06T07:11:53.088Z,100657.13
2023-03-06T07:14:19.628Z,100654.47
2023-03-06T07:16:46.218Z,100648.41
2023-03-06T07:19:12.756Z,100648.50
2023-03-06T07:21:39.264Z,100654.56
2023-03-06T07:24:06.000Z,100647.91
2023-03-06T07:26:34.602Z,100653.16
2023-03-06T07:29:01.699Z,100647.50
2023-03-06T07:31:28.532Z,100647.22
2023-03-06T07:33:55.397Z,100652.75
2023-03-06T07:36:23.701Z,100647.88
2023-03-06T07:38:50.463Z,100653.16
2023-03-06T07:41:20.414Z,100641.50
2023-03-06T07:43:48.948Z,100648.66
2023-03-06T07:46:15.707Z,100657.50
2023-03-06T07:48:42.908Z,100642.38
2023-03-06T07:51:14.886Z,100645.47
2023-03-06T07:53:41.755Z,100644.63
2023-03-06T07:56:09.293Z,100643.91
2023-03-06T07:58:38.131Z,100648.44
2023-03-06T08:01:14.288Z,100646.84
2023-03-06T08:03:41.006Z,100644.84
2023-03-06T08:06:11.986Z,100655.56
2023-03-06T08:08:40.031Z,100653.06
2023-03-06T08:11:08.649Z,100655.97
2023-03-06T08:13:35.494Z,100653.66
2023-03-06T08:16:02.940Z,100654.03
2023-03-06T08:18:29.523Z,100665.72
2023-03-06T08:21:16.599Z,100663.97
2023-03-06T08:23:43.539Z,100660.69
2023-03-06T08:26:18.746Z,100659.03
2023-03-06T08:28:45.794Z,100661.63
2023-03-06T08:31:21.298Z,100655.69
2023-03-06T08:33:47.835Z,100657.28
2023-03-06T08:36:14.260Z,100660.13
2023-03-06T08:38:40.703Z,100659.22
2023-03-06T08:41:07.209Z,100655.94
2023-03-06T08:43:35.771Z,100654.41
2023-03-06T08:46:02.454Z,100656.66
2023-03-06T08:48:29.175Z,100655.56
2023-03-06T08:50:55.733Z,100659.84
2023-03-06T08:53:30.446Z,100654.94
2023-03-06T08:56:03.715Z,100653.47
2023-03-06T08:58:30.713Z,100651.31
2023-03-06T09:00:58.094Z,100654.81
2023-03-06T09:03:25.186Z,100652.94
2023-03-06T09:05:51.858Z,100657.81
2023-03-06T09:08:18.435Z,100649.47
2023-03-06T09:10:48.215Z,100650.41
2023-03-06T09:13:14.911Z,100655.94
2023-03-06T09:15:41.386Z,100657.22
2023-03-06T09:18:07.984Z,100655.31
2023-03-06T09:20:34.467Z,100654.69
2023-03-06T09:23:00.948Z,100648.50
2023-03-06T09:25:27.439Z,100648.50
2023-03-06T09:28:10.133Z,100643.47
2023-03-06T09:30:40.212Z,100648.69
2023-03-06T09:33:06.698Z,100650.41
2023-03-06T09:35:33.264Z,100640.31
2023-03-06T09:37:59.753Z,100642.78
2023-03-06T09:40:45.586Z,100654.97
2023-03-06T09:43:20.676Z,100636.47
2023-03-06T09:45:47.296Z,100641.06
2023-03-06T09:48:16.233Z,100645.34
2023-03-06T09:51:01.325Z,100640.06
2023-03-06T09:53:37.029Z,100642.13
2023-03-06T09:56:21.142Z,100642.09
2023-03-06T09:58:53.821Z,100654.59
2023-03-06T10:01:26.045Z,100650.38
2023-03-06T10:04:20.483Z,100642.84
2023-03-06T10:06:53.090Z,100646.47
2023-03-06T10:09:36.332Z,100650.28
2023-03-06T10:12:16.967Z,100649.03
2023-03-06T10:14:48.794Z,100642.41
2023-03-06T10:17:21.466Z,100654.59
2023-03-06T10:19:48.218Z,100653.16
2023-03-06T10:22:27.276Z,100641.75
2023-03-06T10:25:26.068Z,100634.97
2023-03-06T10:27:58.630Z,100637.78
2023-03-06T10:30:33.564Z,100634.97
2023-03-06T10:33:07.512Z,100638.13
2023-03-06T10:35:50.924Z,100650.50
2023-03-06T10:38:22.466Z,100634.34
2023-03-06T10:41:22.575Z,100649.97
2023-03-06T10:44:01.176Z,100647.75
2023-03-06T10:46:30.808Z,100638.91
2023-03-06T10:48:59.984Z,100645.28
2023-03-06T10:51:27.704Z,100653.25
2023-03-06T10:53:57.854Z,100645.81
2023-03-06T10:56:39.933Z,100632.59
2023-03-06T10:59:17.173Z,100639.59
2023-03-06T11:01:45.480Z,100636.28
2023-03-06T11:04:26.130Z,100638.47
2023-03-06T11:07:14.826Z,100637.75
2023-03-06T11:09:59.494Z,100632.75
2023-03-06T11:12:29.124Z,100639.75
2023-03-06T11:15:14.387Z,100619.78
2023-03-06T11:18:22.155Z,100615.78
2023-03-06T11:20:54.403Z,100619.19
2023-03-06T11:23:41.986Z,100620.06
2023-03-06T11:26:17.495Z,100617.25
2023-03-06T11:28:48.326Z,100615.31
2023-03-06T11:31:25.781Z,100617.47
2023-03-06T11:34:04.162Z,100612.00
2023-03-06T11:36:47.691Z,100602.78
2023-03-06T11:39:26.407Z,100605.06
2023-03-06T11:42:01.336Z,100599.97
2023-03-06T11:44:50.784Z,100600.16
2023-03-06T11:47:26.445Z,100597.00
2023-03-06T11:50:13.073Z,100593.81
2023-03-06T11:52:53.187Z,100599.09
2023-03-06T11:55:28.006Z,100590.09
2023-03-06T11:58:31.874Z,100600.88
2023-03-06T12:01:17.446Z,100597.41
2023-03-06T12:03:44.105Z,100586.94
2023-03-06T12:06:23.559Z,100583.22
2023-03-06T12:08:55.746Z,100582.22
2023-03-06T12:12:13.489Z,100575.44
2023-03-06T12:15:15.259Z,100571.00
2023-03-06T12:17:41.698Z,100572.13
2023-03-06T12:20:28.426Z,100574.56
2023-03-06T12:23:15.405Z,100575.66
2023-03-06T12:25:47.286Z,100569.31
2023-03-06T12:28:33.951Z,100571.56
2023-03-06T12:31:16.620Z,100558.25
2023-03-06T12:34:06.724Z,100558.47
2023-03-06T12:36:47.042Z,100554.00
2023-03-06T12:39:25.699Z,100556.91
2023-03-06T12:42:11.451Z,100555.06
2023-03-06T12:45:11.925Z,100547.69
2023-03-06T12:47:44.752Z,100544.09
2023-03-06T12:50:22.420Z,100546.19
2023-03-06T12:52:49.918Z,100537.91
2023-03-06T12:55:24.320Z,100534.00
2023-03-06T12:57:52.676Z,100533.56
2023-03-06T13:00:34.401Z,100526.59
2023-03-06T13:03:03.716Z,100524.41
2023-03-06T13:05:54.905Z,100520.44
2023-03-06T13:08:40.170Z,100514.84
2023-03-06T13:11:25.409Z,100511.09
2023-03-06T13:13:51.958Z,100511.63
2023-03-06T13:16:18.386Z,100509.16
2023-03-06T13:18:44.822Z,100507.59
2023-03-06T13:21:42.182Z,100511.28
2023-03-06T13:24:22.377Z,100504.47
2023-03-06T13:26:54.879Z,100495.59
2023-03-06T13:29:36.581Z,100494.72
2023-03-06T13:32:03.110Z,100492.31
2023-03-06T13:34:51.651Z,100489.69
2023-03-06T13:37:22.936Z,100481.50
2023-03-06T13:39:52.420Z,100482.34
2023-03-06T13:42:59.564Z,100471.09
2023-03-06T13:45:33.283Z,100473.56
2023-03-06T13:48:37.392Z,100462.78
2023-03-06T13:50:48.461Z,100460.63
2023-03-06T13:53:20.850Z,100461.03
2023-03-06T13:55:50.272Z,100457.44
2023-03-06T13:58:16.680Z,100454.41
2023-03-06T14:01:10.926Z,100447.88
2023-03-06T14:03:56.056Z,100449.34
2023-03-06T14:06:34.748Z,100451.03
2023-03-06T14:09:05.399Z,100444.41
2023-03-06T14:11:33.329Z,100446.22
2023-03-06T14:14:00.510Z,100431.69
2023-03-06T14:16:48.880Z,100435.16
2023-03-06T14:19:18.607Z,100416.97
2023-03-06T14:21:45.094Z,100414.59
2023-03-06T14:24:17.162Z,100429.44
2023-03-06T14:26:51.729Z,100426.25
2023-03-06T14:29:24.423Z,100424.88
2023-03-06T14:31:53.246Z,100419.09
2023-03-06T14:34:25.555Z,100412.91
2023-03-06T14:36:57.980Z,100412.63
2023-03-06T14:39:43.927Z,100412.13
2023-03-06T14:42:21.908Z,100405.25
2023-03-06T14:44:59.694Z,100408.09
2023-03-06T14:47:32.029Z,100401.91
2023-03-06T14:50:24.732Z,100403.69
2023-03-06T14:53:16.592Z,100400.09
2023-03-06T14:56:20.047Z,100416.06
2023-03-06T14:58:59.819Z,100392.88
2023-03-06T15:01:35.357Z,100429.69
2023-03-06T15:04:06.909Z,100400.91
2023-03-06T15:06:38.515Z,100386.38
2023-03-06T15:09:14.437Z,100387.47
2023-03-06T15:12:00.801Z,100378.09
2023-03-06T15:14:34.588Z,100385.81
2023-03-06T15:17:19.270Z,100388.78
2023-03-06T15:19:47.724Z,100379.63
2023-03-06T15:22:40.093Z,100361.25
2023-03-06T15:25:13.089Z,100371.69
2023-03-06T15:27:39.809Z,100380.41
2023-03-06T15:30:24.808Z,100380.59
2023-03-06T15:32:51.680Z,100372.41
2023-03-06T15:35:37.869Z,100377.97
2023-03-06T15:38:23.544Z,100365.94
2023-03-06T15:40:58.367Z,100358.34
2023-03-06T15:43:24.873Z,100365.63
2023-03-06T15:45:57.717Z,100371.50
2023-03-06T15:48:24.275Z,100368.69
2023-03-06T15:50:50.771Z,100368.84
2023-03-06T15:53:17.309Z,100352.56
2023-03-06T15:55:43.902Z,100347.34
2023-03-06T15:58:16.356Z,100343.09
2023-03-06T16:00:43.022Z,100343.75
2023-03-06T16:03:11.020Z,100345.97
2023-03-06T16:05:37.989Z,100344.44
2023-03-06T16:08:05.423Z,100347.97
2023-03-06T16:10:35.339Z,100346.41
2023-03-06T16:13:06.315Z,100335.19
2023-03-06T16:15:39.304Z,100339.63
2023-03-06T16:18:06.552Z,100332.38
2023-03-06T16:20:33.499Z,100338.72
2023-03-06T16:22:59.989Z,100332.72
2023-03-06T16:25:28.212Z,100336.19
2023-03-06T16:28:00.852Z,100339.53
2023-03-06T16:30:30.427Z,100320.22
2023-03-06T16:32:58.220Z,100328.78
2023-03-06T16:35:25.769Z,100330.06
2023-03-06T16:37:52.273Z,100319.94
2023-03-06T16:40:25.126Z,100310.47
2023-03-06T16:42:54.077Z,100305.41
2023-03-06T16:45:22.541Z,100302.72
2023-03-06T16:47:49.550Z,100300.38
2023-03-06T16:50:27.982Z,100298.78
2023-03-06T16:52:55.801Z,100296.91
2023-03-06T16:55:24.233Z,100292.59
2023-03-06T16:57:50.890Z,100299.09
2023-03-06T17:00:18.738Z,100283.75
2023-03-06T17:02:48.334Z,100289.63
2023-03-06T17:05:14.900Z,100289.13
2023-03-06T17:07:41.512Z,100288.34
2023-03-06T17:10:11.625Z,100295.47
2023-03-06T17:12:38.344Z,100291.03
2023-03-06T17:15:06.030Z,100285.19
2023-03-06T17:17:32.849Z,100286.94
2023-03-06T17:19:59.360Z,100286.94
2023-03-06T17:22:27.259Z,100288.34
2023-03-06T17:24:54.027Z,100279.03
2023-03-06T17:27:22.385Z,100278.72
2023-03-06T17:29:48.929Z,100274.47
2023-03-06T17:32:15.422Z,100268.63
2023-03-06T17:34:42.055Z,100265.47
2023-03-06T17:37:08.524Z,100260.44
2023-03-06T17:39:36.399Z,100263.09
2023-03-06T17:42:03.794Z,100257.75
2023-03-06T17:44:31.124Z,100258.81
2023-03-06T17:46:57.684Z,100261.22
2023-03-06T17:49:25.226Z,100256.91
2023-03-06T17:51:52.435Z,100255.34
2023-03-06T17:54:19.635Z,100251.56
2023-03-06T17:56:46.136Z,100247.00
2023-03-06T17:59:12.726Z,100254.75
2023-03-06T18:01:39.289Z,100245.91
2023-03-06T18:04:06.268Z,100252.38
2023-03-06T18:06:33.818Z,100254.09
2023-03-06T18:09:00.823Z,100249.38
2023-03-06T18:11:27.798Z,100260.88
2023-03-06T18:13:54.368Z,100248.59
2023-03-06T18:16:23.681Z,100257.25
2023-03-06T18:18:56.151Z,100255.34
2023-03-06T18:21:23.984Z,100239.22
2023-03-06T18:23:50.708Z,100250.59
2023-03-06T18:26:21.888Z,100237.50
2023-03-06T18:28:51.967Z,100237.03
2023-03-06T18:31:27.598Z,100228.50
2023-03-06T18:33:56.650Z,100229.28
2023-03-06T18:36:25.136Z,100217.78
2023-03-06T18:38:51.919Z,100206.75
2023-03-06T18:41:20.181Z,100208.66
2023-03-06T18:43:54.929Z,100204.69
2023-03-06T18:46:22.317Z,100196.16
2023-03-06T18:48:48.842Z,100202.94
2023-03-06T18:51:15.461Z,100196.00
2023-03-06T18:53:42.496Z,100193.00
2023-03-06T18:56:15.865Z,100197.59
2023-03-06T18:58:42.859Z,100178.50
2023-03-06T19:01:09.602Z,100175.66
2023-03-06T19:03:36.213Z,100170.78
2023-03-06T19:06:07.738Z,100163.81
2023-03-06T19:08:35.475Z,100158.75
2023-03-06T19:11:04.300Z,100148.66
2023-03-06T19:13:31.074Z,100150.72
2023-03-06T19:15:57.678Z,100144.56
2023-03-06T19:18:26.056Z,100136.03
2023-03-06T19:20:55.176Z,100146.94
2023-03-06T19:23:23.665Z,100139.19
2023-03-06T19:26:00.294Z,100131.16
2023-03-06T19:28:27.270Z,100129.56
2023-03-06T19:30:53.782Z,100120.28
2023-03-06T19:33:20.344Z,100119.16
2023-03-06T19:35:47.711Z,100119.50
2023-03-06T19:38:15.539Z,100106.09
2023-03-06T19:40:49.411Z,100106.22
2023-03-06T19:43:15.982Z,100096.94
2023-03-06T19:45:43.987Z,100095.50
2023-03-06T19:48:13.521Z,100098.97
2023-03-06T19:50:40.826Z,100084.31
2023-03-06T19:53:08.366Z,100083.53
2023-03-06T19:55:34.829Z,100076.13
2023-03-06T19:58:01.342Z,100069.66
2023-03-06T20:00:28.488Z,100072.34
2023-03-06T20:02:55.428Z,100068.88
2023-03-06T20:05:21.967Z,100058.63
2023-03-06T20:07:48.892Z,100053.56
2023-03-06T20:10:15.885Z,100050.25
2023-03-06T20:12:43.856Z,100050.25
2023-03-06T20:15:11.034Z,100046.78
2023-03-06T20:17:40.405Z,100043.31
2023-03-06T20:20:10.638Z,100044.88
2023-03-06T20:22:37.181Z,100036.53
2023-03-06T20:25:04.219Z,100025.81
2023-03-06T20:27:30.733Z,100024.06
2023-03-06T20:29:57.306Z,100019.19
2023-03-06T20:32:23.835Z,100008.44
2023-03-06T20:34:50.367Z,100009.69
2023-03-06T20:37:16.850Z,100006.72
2023-03-06T20:39:43.306Z,99997.56
2023-03-06T20:42:09.778Z,99993.47
2023-03-06T20:44:36.236Z,99992.34
2023-03-06T20:47:02.742Z,99992.47
2023-03-06T20:49:29.245Z,99979.56
2023-03-06T20:51:56.683Z,99973.09
2023-03-06T20:54:23.311Z,99978.47
2023-03-06T20:56:50.262Z,99978.13
2023-03-06T20:59:16.954Z,99971.97
2023-03-06T21:01:45.704Z,99965.50
2023-03-06T21:04:14.190Z,99971.34
2023-03-06T21:06:43.904Z,99957.59
2023-03-06T21:09:11.275Z,99955.25
2023-03-06T21:11:38.047Z,99958.38
2023-03-06T21:14:05.358Z,99957.31
2023-03-06T21:16:31.876Z,99957.31
2023-03-06T21:19:00.006Z,99948.59
2023-03-06T21:21:32.882Z,99951.75
2023-03-06T21:24:00.295Z,99944.16
2023-03-06T21:26:29.795Z,99942.75
2023-03-06T21:28:58.891Z,99933.25
2023-03-06T21:31:28.307Z,99928.34
2023-03-06T21:33:55.143Z,99920.47
2023-03-06T21:36:22.512Z,99922.50
2023-03-06T21:38:49.985Z,99931.94
2023-03-06T21:41:19.404Z,99919.44
2023-03-06T21:43:46.620Z,99918.78
2023-03-06T21:46:13.563Z,99912.78
2023-03-06T21:48:40.677Z,99915.13
2023-03-06T21:51:13.094Z,99906.41
2023-03-06T21:53:42.327Z,99918.44
2023-03-06T21:56:10.148Z,99920.78
2023-03-06T21:58:36.676Z,99911.63
2023-03-06T22:01:08.973Z,99921.22
2023-03-06T22:03:35.506Z,99915.88
2023-03-06T22:06:14.364Z,99901.66
2023-03-06T22:08:41.841Z,99910.81
2023-03-06T22:11:14.560Z,99914.75
2023-03-06T22:13:41.952Z,99909.38
2023-03-06T22:16:09.187Z,99908.28
2023-03-06T22:18:36.117Z,99901.00
2023-03-06T22:21:13.547Z,99897.06
2023-03-06T22:23:40.570Z,99897.88
2023-03-06T22:26:09.563Z,99901.78
2023-03-06T22:28:37.013Z,99895.31
2023-03-06T22:31:24.291Z,99901.47
2023-03-06T22:33:54.830Z,99881.56
2023-03-06T22:36:22.373Z,99883.94
2023-03-06T22:38:53.068Z,99885.38
2023-03-06T22:41:20.194Z,99866.09
2023-03-06T22:43:46.802Z,99857.72
2023-03-06T22:46:15.932Z,99867.38
2023-03-06T22:48:42.891Z,99870.06
2023-03-06T22:51:14.846Z,99872.41
2023-03-06T22:53:41.505Z,99873.19
2023-03-06T22:56:10.948Z,99869.41
2023-03-06T22:58:38.341Z,99863.56
2023-03-06T23:01:11.473Z,99871.63
2023-03-06T23:03:39.880Z,99872.06
2023-03-06T23:06:15.522Z,99865.91
2023-03-06T23:08:42.931Z,99864.34
2023-03-06T23:11:11.952Z,99866.72
2023-03-06T23:13:38.600Z,99869.84
2023-03-06T23:16:06.906Z,99861.00
2023-03-06T23:18:37.902Z,99861.47
2023-03-06T23:21:09.084Z,99858.47
2023-03-06T23:23:36.927Z,99857.66
2023-03-06T23:26:04.276Z,99865.41
2023-03-06T23:28:31.009Z,99869.66
2023-03-06T23:30:57.584Z,99865.06
2023-03-06T23:33:24.162Z,99854.66
2023-03-06T23:35:51.013Z,99855.44
2023-03-06T23:38:17.498Z,99852.63
2023-03-06T23:40:43.956Z,99864.16
2023-03-06T23:43:10.411Z,99854.97
2023-03-06T23:45:36.892Z,99852.63
2023-03-06T23:48:05.990Z,99857.88
2023-03-06T23:50:32.397Z,99848.88
2023-03-06T23:52:58.869Z,99850.66
2023-03-06T23:55:25.357Z,99846.25
2023-03-06T23:57:51.816Z,99850.22
